createdAt,value
2019-02-19T00:00:05.884Z,100341.68
2019-02-19T00:05:08.111Z,100345.81
2019-02-19T00:10:11.236Z,100338.27
2019-02-19T00:15:13.545Z,100330.65
2019-02-19T00:20:16.458Z,100324.68
2019-02-19T00:25:18.477Z,100324.68
2019-02-19T00:30:20.400Z,100316.77
2019-02-19T00:35:22.306Z,100310.06
2019-02-19T00:40:24.271Z,100308.13
2019-02-19T00:45:26.402Z,100308.34
2019-02-19T00:50:28.527Z,100315.92
2019-02-19T00:55:30.411Z,100312.16
2019-02-19T01:00:32.290Z,100312.72
2019-02-19T01:05:34.407Z,100319.29
2019-02-19T01:10:36.294Z,100329.05
2019-02-19T01:15:38.301Z,100328.03
2019-02-19T01:20:40.219Z,100324.75
2019-02-19T01:25:42.105Z,100321.71
2019-02-19T01:30:44.016Z,100308.81
2019-02-19T01:35:46.026Z,100312.70
2019-02-19T01:40:48.065Z,100302.63
2019-02-19T01:45:50.014Z,100314.52
2019-02-19T01:50:51.926Z,100310.27
2019-02-19T01:55:53.974Z,100308.77
2019-02-19T02:00:56.110Z,100306.52
2019-02-19T02:05:58.008Z,100301.95
2019-02-19T02:11:00.167Z,100304.41
2019-02-19T02:16:02.072Z,100304.58
2019-02-19T02:21:03.974Z,100287.09
2019-02-19T02:26:05.854Z,100278.16
2019-02-19T02:31:09.253Z,100274.60
2019-02-19T02:36:11.398Z,100279.56
2019-02-19T02:41:13.435Z,100277.47
2019-02-19T02:46:16.343Z,100278.07
2019-02-19T02:51:18.404Z,100275.01
2019-02-19T02:56:20.279Z,100266.68
2019-02-19T03:01:22.176Z,100275.41
2019-02-19T03:06:36.359Z,100278.16
2019-02-19T03:11:38.547Z,100269.53
2019-02-19T03:16:40.641Z,100266.88
2019-02-19T03:21:43.021Z,100271.53
2019-02-19T03:26:46.038Z,100264.88
2019-02-19T03:31:47.943Z,100261.98
2019-02-19T03:36:49.878Z,100261.72
2019-02-19T03:41:51.810Z,100267.38
2019-02-19T03:46:53.720Z,100262.20
2019-02-19T03:51:55.631Z,100266.59
2019-02-19T03:56:57.743Z,100262.80
2019-02-19T04:01:59.760Z,100268.70
2019-02-19T04:07:01.671Z,100278.28
2019-02-19T04:12:03.721Z,100278.98
2019-02-19T04:17:05.715Z,100284.98
2019-02-19T04:22:07.615Z,100277.00
2019-02-19T04:27:10.832Z,100286.42
2019-02-19T04:32:12.748Z,100278.44
2019-02-19T04:37:14.660Z,100288.48
2019-02-19T04:42:16.626Z,100270.62
2019-02-19T04:47:18.507Z,100275.35
2019-02-19T04:52:20.409Z,100279.92
2019-02-19T04:57:22.297Z,100283.63
2019-02-19T05:02:24.449Z,100281.20
2019-02-19T05:07:26.355Z,100271.06
2019-02-19T05:12:28.282Z,100268.94
2019-02-19T05:17:30.178Z,100279.06
2019-02-19T05:22:32.295Z,100283.94
2019-02-19T05:27:34.182Z,100279.22
2019-02-19T05:32:36.085Z,100282.91
2019-02-19T05:37:38.029Z,100292.37
2019-02-19T05:42:40.068Z,100289.30
2019-02-19T05:47:41.939Z,100291.78
2019-02-19T05:52:43.836Z,100295.44
2019-02-19T05:57:45.719Z,100300.14
2019-02-19T06:02:47.603Z,100305.55
2019-02-19T06:07:49.506Z,100313.58
2019-02-19T06:12:51.449Z,100318.30
2019-02-19T06:17:53.538Z,100313.16
2019-02-19T06:22:55.429Z,100320.55
2019-02-19T06:27:57.346Z,100318.72
2019-02-19T06:33:20.283Z,100323.10
2019-02-19T06:38:22.226Z,100325.61
2019-02-19T06:43:24.561Z,100337.67
2019-02-19T06:48:26.456Z,100335.63
2019-02-19T06:53:29.343Z,100359.09
2019-02-19T06:58:31.256Z,100363.92
2019-02-19T07:04:05.954Z,100360.34
2019-02-19T07:09:08.244Z,100368.63
2019-02-19T07:14:10.219Z,100357.88
2019-02-19T07:19:12.236Z,100356.02
2019-02-19T07:24:14.128Z,100364.80
2019-02-19T07:29:16.136Z,100366.90
2019-02-19T07:34:18.010Z,100372.82
2019-02-19T07:39:20.017Z,100380.77
2019-02-19T07:44:22.018Z,100380.89
2019-02-19T07:49:23.896Z,100381.47
2019-02-19T07:54:25.779Z,100388.16
2019-02-19T07:59:27.775Z,100382.39
2019-02-19T08:04:29.670Z,100383.88
2019-02-19T08:09:31.772Z,100388.28
2019-02-19T08:14:49.317Z,100390.81
2019-02-19T08:19:51.201Z,100408.77
2019-02-19T08:24:53.083Z,100404.97
2019-02-19T08:29:55.372Z,100415.95
2019-02-19T08:34:57.226Z,100406.23
2019-02-19T08:39:59.216Z,100406.94
2019-02-19T08:45:01.368Z,100409.69
2019-02-19T08:50:03.757Z,100415.97
2019-02-19T08:55:05.975Z,100419.56
2019-02-19T09:00:09.462Z,100431.16
2019-02-19T09:05:11.591Z,100425.59
2019-02-19T09:10:14.905Z,100423.92
2019-02-19T09:15:16.806Z,100429.98
2019-02-19T09:20:18.698Z,100441.73
2019-02-19T09:25:20.709Z,100443.95
2019-02-19T09:30:22.694Z,100433.27
2019-02-19T09:35:24.573Z,100430.83
2019-02-19T09:40:26.504Z,100434.70
2019-02-19T09:45:28.447Z,100454.45
2019-02-19T09:50:30.325Z,100447.55
2019-02-19T09:55:32.336Z,100459.98
2019-02-19T10:00:34.334Z,100448.06
2019-02-19T10:05:36.362Z,100445.52
2019-02-19T10:10:38.594Z,100460.36
2019-02-19T10:15:40.662Z,100446.06
2019-02-19T10:20:42.536Z,100454.72
2019-02-19T10:25:44.715Z,100451.08
2019-02-19T10:30:46.717Z,100452.30
2019-02-19T10:35:48.603Z,100444.44
2019-02-19T10:40:50.513Z,100450.41
2019-02-19T10:45:52.588Z,100460.87
2019-02-19T10:50:54.477Z,100462.17
2019-02-19T10:55:56.371Z,100470.73
2019-02-19T11:00:58.393Z,100464.03
2019-02-19T11:06:00.317Z,100464.53
2019-02-19T11:11:02.306Z,100462.56
2019-02-19T11:16:04.263Z,100475.47
2019-02-19T11:21:06.134Z,100477.73
2019-02-19T11:26:08.243Z,100479.92
2019-02-19T11:31:10.255Z,100471.68
2019-02-19T11:36:12.169Z,100468.75
2019-02-19T11:41:14.088Z,100465.73
2019-02-19T11:46:16.018Z,100470.77
2019-02-19T11:51:17.921Z,100463.11
2019-02-19T11:56:19.930Z,100462.41
2019-02-19T12:01:21.930Z,100464.22
2019-02-19T12:06:23.842Z,100462.14
2019-02-19T12:11:25.717Z,100466.44
2019-02-19T12:16:28.655Z,100462.17
2019-02-19T12:21:30.575Z,100471.13
2019-02-19T12:26:32.481Z,100467.72
2019-02-19T12:31:34.394Z,100461.77
2019-02-19T12:36:36.397Z,100465.58
2019-02-19T12:41:38.289Z,100449.20
2019-02-19T12:46:40.409Z,100449.85
2019-02-19T12:51:42.298Z,100444.92
2019-02-19T12:56:44.187Z,100442.10
2019-02-19T13:01:46.097Z,100441.80
2019-02-19T13:06:48.002Z,100453.19
2019-02-19T13:11:50.007Z,100442.86
2019-02-19T13:16:52.025Z,100440.17
2019-02-19T13:21:53.906Z,100447.69
2019-02-19T13:26:55.927Z,100449.05
2019-02-19T13:31:57.825Z,100432.53
2019-02-19T13:36:59.794Z,100432.12
2019-02-19T13:42:01.794Z,100414.78
2019-02-19T13:47:03.874Z,100405.28
2019-02-19T13:52:22.599Z,100401.00
2019-02-19T13:57:21.503Z,100417.88
2019-02-19T14:02:23.373Z,100421.77
2019-02-19T14:07:25.252Z,100415.39
2019-02-19T14:12:27.166Z,100428.83
2019-02-19T14:17:29.090Z,100428.41
2019-02-19T14:22:49.023Z,100429.89
2019-02-19T14:28:16.947Z,100433.10
2019-02-19T14:33:48.804Z,100431.51
2019-02-19T14:39:05.881Z,100437.80
2019-02-19T14:44:38.701Z,100436.56
2019-02-19T14:49:58.547Z,100430.96
2019-02-19T14:55:26.212Z,100423.22
2019-02-19T15:00:56.781Z,100431.04
2019-02-19T15:06:16.801Z,100431.71
2019-02-19T15:11:36.831Z,100431.03
2019-02-19T15:16:56.202Z,100428.66
2019-02-19T15:22:16.422Z,100430.25
2019-02-19T15:27:30.888Z,100428.11
2019-02-19T15:32:56.570Z,100441.05
2019-02-19T15:38:29.942Z,100442.02
2019-02-19T15:43:39.402Z,100445.97
2019-02-19T15:48:55.074Z,100453.65
2019-02-19T15:54:16.683Z,100445.72
2019-02-19T15:59:36.993Z,100452.80
2019-02-19T16:04:51.298Z,100449.16
2019-02-19T16:10:06.699Z,100456.11
2019-02-19T16:15:15.670Z,100465.02
2019-02-19T16:20:40.951Z,100461.38
2019-02-19T16:25:59.008Z,100466.39
2019-02-19T16:31:24.090Z,100469.73
2019-02-19T16:36:45.665Z,100477.77
2019-02-19T16:41:54.394Z,100484.02
2019-02-19T16:47:05.559Z,100482.88
2019-02-19T16:52:27.265Z,100490.45
2019-02-19T16:57:40.992Z,100497.01
2019-02-19T17:02:51.262Z,100498.31
2019-02-19T17:07:59.908Z,100507.03
2019-02-19T17:13:21.650Z,100508.37
2019-02-19T17:18:49.351Z,100516.03
2019-02-19T17:24:09.610Z,100517.07
2019-02-19T17:29:18.162Z,100519.94
2019-02-19T17:34:48.578Z,100522.59
2019-02-19T17:40:10.317Z,100525.66
2019-02-19T17:45:35.158Z,100526.56
2019-02-19T17:50:49.217Z,100537.69
2019-02-19T17:55:58.727Z,100549.66
2019-02-19T18:01:06.504Z,100549.38
2019-02-19T18:06:31.061Z,100550.64
2019-02-19T18:11:51.685Z,100553.41
2019-02-19T18:17:11.524Z,100561.23
2019-02-19T18:22:13.481Z,100569.16
2019-02-19T18:27:15.404Z,100561.92
2019-02-19T18:32:17.290Z,100562.77
2019-02-19T18:37:19.284Z,100553.42
2019-02-19T18:42:21.646Z,100550.13
2019-02-19T18:47:23.570Z,100534.95
2019-02-19T18:52:25.533Z,100539.19
2019-02-19T18:57:27.421Z,100544.73
2019-02-19T19:02:29.309Z,100546.85
2019-02-19T19:07:31.301Z,100556.40
2019-02-19T19:12:33.417Z,100562.95
2019-02-19T19:17:35.652Z,100565.69
2019-02-19T19:22:37.781Z,100566.13
2019-02-19T19:27:39.974Z,100574.90
2019-02-19T19:32:41.905Z,100578.00
2019-02-19T19:37:43.896Z,100572.77
2019-02-19T19:42:46.202Z,100579.96
2019-02-19T19:47:49.491Z,100572.31
2019-02-19T19:52:51.401Z,100584.75
2019-02-19T19:57:53.286Z,100596.59
2019-02-19T20:02:55.785Z,100595.25
2019-02-19T20:07:57.655Z,100589.75
2019-02-19T20:13:01.309Z,100602.63
2019-02-19T20:18:03.575Z,100610.72
2019-02-19T20:23:05.729Z,100612.02
2019-02-19T20:28:07.919Z,100628.69
2019-02-19T20:33:10.102Z,100626.85
2019-02-19T20:38:11.993Z,100621.62
2019-02-19T20:43:13.950Z,100628.83
2019-02-19T20:48:16.058Z,100633.37
2019-02-19T20:53:18.092Z,100642.38
2019-02-19T20:58:22.403Z,100639.06
2019-02-19T21:03:25.341Z,100645.44
2019-02-19T21:08:29.775Z,100652.94
2019-02-19T21:13:31.661Z,100654.58
2019-02-19T21:18:33.542Z,100660.72
2019-02-19T21:23:35.717Z,100666.54
2019-02-19T21:28:37.676Z,100664.67
2019-02-19T21:33:39.562Z,100664.46
2019-02-19T21:38:41.888Z,100685.63
2019-02-19T21:43:43.791Z,100682.72
2019-02-19T21:48:48.213Z,100686.27
2019-02-19T21:53:50.023Z,100686.58
2019-02-19T21:58:51.930Z,100690.03
2019-02-19T22:03:54.023Z,100695.44
2019-02-19T22:08:55.947Z,100697.58
2019-02-19T22:13:57.833Z,100704.71
2019-02-19T22:18:59.709Z,100705.02
2019-02-19T22:24:01.632Z,100697.85
2019-02-19T22:29:03.731Z,100702.09
2019-02-19T22:34:05.735Z,100704.61
2019-02-19T22:39:07.870Z,100692.94
2019-02-19T22:44:10.961Z,100701.45
2019-02-19T22:49:12.860Z,100707.20
2019-02-19T22:54:37.310Z,100703.38
2019-02-19T22:59:39.210Z,100711.44
2019-02-19T23:04:41.213Z,100711.09
2019-02-19T23:09:43.240Z,100709.16
2019-02-19T23:14:45.230Z,100708.57
2019-02-19T23:19:47.109Z,100700.13
2019-02-19T23:24:50.446Z,100703.52
2019-02-19T23:29:52.567Z,100704.19
2019-02-19T23:35:29.023Z,100702.60
2019-02-19T23:40:31.413Z,100709.97
2019-02-19T23:45:33.361Z,100713.09
2019-02-19T23:50:35.284Z,100714.16
2019-02-19T23:55:37.411Z,100717.59
